Time;durP1;ratioP1;P1;durP2;ratioP2;P2;SDS_P1;SDS_P2;PMS_P1;PMS_P2;Temp;Humidity;BMP_temperature;BMP_pressure;BME280_temperature;BME280_humidity;BME280_pressure;Samples;Min_cycle;Max_cycle;Signal;HPM_P1;HPM_P2
2023/09/18 00:00:46;;;;;;;11.50;9.00;;;;;;;16.92;59.33;100539.86;105875;1254;73126;-75
2023/09/18 00:03:14;;;;;;;10.90;8.60;;;;;;;16.92;59.43;100545.30;105878;1254;59670;-74
2023/09/18 00:05:41;;;;;;;9.90;8.70;;;;;;;16.91;59.31;100539.31;106005;1255;62070;-76
2023/09/18 00:08:08;;;;;;;10.40;8.10;;;;;;;16.89;59.45;100543.38;105942;1255;73112;-75
2023/09/18 00:10:36;;;;;;;10.60;8.60;;;;;;;16.87;59.46;100541.16;107743;1253;69774;-74
2023/09/18 00:13:04;;;;;;;12.20;8.60;;;;;;;16.87;59.50;100540.72;108562;1253;71940;-75
2023/09/18 00:15:31;;;;;;;11.80;8.20;;;;;;;16.86;59.42;100537.34;108591;1253;59682;-74
2023/09/18 00:17:58;;;;;;;10.80;8.90;;;;;;;16.86;59.46;100538.66;106934;1254;59306;-76
2023/09/18 00:20:26;;;;;;;10.20;8.20;;;;;;;16.86;59.54;100534.89;106428;1252;72073;-75
2023/09/18 00:22:55;;;;;;;9.10;8.10;;;;;;;16.84;59.55;100529.91;106204;1254;69241;-76
2023/09/18 00:25:22;;;;;;;9.90;8.40;;;;;;;16.83;59.53;100533.90;107391;1254;71759;-74
2023/09/18 00:27:51;;;;;;;10.60;9.20;;;;;;;16.80;59.65;100535.45;106849;1254;59420;-73
2023/09/18 00:30:19;;;;;;;11.90;8.80;;;;;;;16.78;59.59;100534.10;107970;1254;59226;-75
2023/09/18 00:32:47;;;;;;;9.10;8.10;;;;;;;16.77;59.67;100535.29;105939;1257;70809;-78
2023/09/18 00:35:14;;;;;;;10.30;8.70;;;;;;;16.75;59.66;100536.77;106012;1261;69133;-75
2023/09/18 00:37:43;;;;;;;10.40;8.20;;;;;;;16.72;59.81;100538.73;106128;1253;70714;-75
2023/09/18 00:40:11;;;;;;;10.60;8.40;;;;;;;16.70;59.80;100540.21;105841;1254;60118;-76
2023/09/18 00:42:38;;;;;;;9.60;8.50;;;;;;;16.67;59.95;100538.31;105993;1256;59495;-76
2023/09/18 00:45:06;;;;;;;12.40;8.80;;;;;;;16.63;60.04;100538.27;105935;1254;72254;-76
2023/09/18 00:47:33;;;;;;;10.80;8.60;;;;;;;16.59;60.09;100541.90;106611;1256;70128;-76
2023/09/18 00:50:01;;;;;;;11.30;8.80;;;;;;;16.56;60.23;100541.89;105869;1254;71456;-76
2023/09/18 00:52:28;;;;;;;10.90;8.60;;;;;;;16.53;60.37;100542.69;105607;1259;60100;-76
2023/09/18 00:54:56;;;;;;;11.20;8.70;;;;;;;16.49;60.41;100535.95;105660;1259;59734;-77
2023/09/18 00:57:23;;;;;;;10.80;8.20;;;;;;;16.46;60.51;100534.22;105806;1254;71799;-77
2023/09/18 00:59:51;;;;;;;11.30;9.70;;;;;;;16.43;60.55;100532.83;105827;1260;68764;-74
2023/09/18 01:02:20;;;;;;;11.60;9.10;;;;;;;16.40;60.63;100535.10;105473;1253;72442;-75
2023/09/18 01:04:48;;;;;;;14.00;10.00;;;;;;;16.37;60.75;100536.73;105808;1254;60474;-72
2023/09/18 01:07:16;;;;;;;11.40;9.40;;;;;;;16.33;60.87;100536.99;105767;1260;60425;-73
2023/09/18 01:09:43;;;;;;;11.20;8.50;;;;;;;16.30;61.10;100536.11;105829;1253;74330;-73
2023/09/18 01:12:17;;;;;;;10.50;8.80;;;;;;;16.27;61.11;100534.14;105631;1260;70096;-73
2023/09/18 01:15:11;;;;;;;9.90;8.90;;;;;;;16.24;60.96;100537.20;105721;1254;71467;-73
2023/09/18 01:17:40;;;;;;;9.10;8.20;;;;;;;16.23;61.02;100535.36;105617;1260;60546;-73
2023/09/18 01:20:11;;;;;;;13.90;9.20;;;;;;;16.22;61.15;100532.97;105871;1257;60408;-74
2023/09/18 01:22:39;;;;;;;9.60;8.60;;;;;;;16.22;61.05;100532.27;105842;1254;73878;-77
2023/09/18 01:25:07;;;;;;;10.30;9.10;;;;;;;16.24;61.18;100533.67;105942;1254;69643;-74
2023/09/18 01:27:35;;;;;;;9.30;8.30;;;;;;;16.24;61.10;100533.40;105891;1254;72790;-74
2023/09/18 01:30:02;;;;;;;9.10;8.10;;;;;;;16.25;61.09;100529.98;106246;1257;60464;-74
2023/09/18 01:32:31;;;;;;;10.50;9.20;;;;;;;16.27;60.95;100528.66;106276;1254;60458;-74
2023/09/18 01:35:00;;;;;;;11.20;9.60;;;;;;;16.28;60.95;100531.16;105990;1254;74019;-76
2023/09/18 01:37:29;;;;;;;11.40;8.70;;;;;;;16.29;60.89;100527.36;105975;1260;69222;-74
2023/09/18 01:39:59;;;;;;;13.40;9.70;;;;;;;16.29;61.03;100525.92;105522;1254;72938;-74
2023/09/18 01:42:27;;;;;;;10.80;8.70;;;;;;;16.28;61.04;100524.42;105443;1254;60462;-76
2023/09/18 01:44:55;;;;;;;12.40;8.70;;;;;;;16.27;61.02;100519.70;105361;1253;60611;-75
2023/09/18 01:47:23;;;;;;;10.80;9.10;;;;;;;16.25;61.06;100519.77;105747;1255;72805;-73
2023/09/18 01:49:50;;;;;;;10.50;8.40;;;;;;;16.23;61.21;100523.27;105873;1254;70163;-74
2023/09/18 01:52:18;;;;;;;11.00;9.20;;;;;;;16.21;61.31;100518.48;108950;1253;71611;-71
2023/09/18 01:54:45;;;;;;;10.70;8.90;;;;;;;16.20;61.23;100519.63;109123;1254;58793;-73
2023/09/18 01:57:13;;;;;;;11.80;9.60;;;;;;;16.21;61.28;100519.34;105740;1252;60603;-75
2023/09/18 01:59:41;;;;;;;11.00;8.70;;;;;;;16.21;61.13;100513.48;105765;1254;73765;-74
2023/09/18 02:02:10;;;;;;;9.60;8.50;;;;;;;16.21;61.12;100514.52;105908;1254;70268;-74
2023/09/18 02:04:55;;;;;;;9.20;8.10;;;;;;;16.21;61.12;100514.61;105673;1254;71886;-74
2023/09/18 02:07:35;;;;;;;10.30;8.50;;;;;;;16.20;61.05;100514.09;105647;1254;60430;-74
2023/09/18 02:10:04;;;;;;;12.50;9.80;;;;;;;16.20;61.14;100510.24;105643;1253;60935;-74
2023/09/18 02:12:31;;;;;;;14.10;9.70;;;;;;;16.19;61.10;100512.46;105937;1258;73871;-75
2023/09/18 02:15:05;;;;;;;10.20;9.20;;;;;;;16.19;61.06;100512.09;105637;1258;68395;-75
2023/09/18 02:17:33;;;;;;;13.20;9.60;;;;;;;16.19;61.03;100509.24;105945;1254;72588;-76
2023/09/18 02:20:04;;;;;;;13.40;9.90;;;;;;;16.19;61.10;100510.66;105823;1253;60491;-76
2023/09/18 02:22:32;;;;;;;9.60;8.60;;;;;;;16.20;61.05;100512.86;105775;1257;60557;-77
2023/09/18 02:25:00;;;;;;;12.50;9.00;;;;;;;16.21;61.01;100511.09;105639;1254;73548;-76
2023/09/18 02:27:27;;;;;;;9.80;8.60;;;;;;;16.21;61.00;100506.27;105805;1254;69959;-76
2023/09/18 02:29:55;;;;;;;12.30;9.70;;;;;;;16.21;60.85;100505.93;105794;1254;73013;-75
2023/09/18 02:32:22;;;;;;;13.30;9.30;;;;;;;16.21;60.78;100504.50;105800;1258;60419;-74
2023/09/18 02:34:50;;;;;;;10.10;9.10;;;;;;;16.22;60.69;100504.71;105638;1253;60517;-76
2023/09/18 02:37:17;;;;;;;15.30;9.40;;;;;;;16.23;60.78;100506.46;107257;1254;73763;-77
2023/09/18 02:39:44;;;;;;;11.30;8.80;;;;;;;16.24;60.71;100500.90;107865;1254;68862;-76
2023/09/18 02:42:12;;;;;;;12.70;9.50;;;;;;;16.25;60.72;100499.52;106659;1254;72859;-77
2023/09/18 02:44:39;;;;;;;11.20;9.40;;;;;;;16.26;60.69;100500.11;105564;1254;60549;-76
2023/09/18 02:47:07;;;;;;;15.50;10.30;;;;;;;16.25;60.54;100498.81;106026;1254;60799;-77
2023/09/18 02:49:34;;;;;;;11.10;9.20;;;;;;;16.25;60.69;100499.19;105966;1255;73844;-76
2023/09/18 02:52:03;;;;;;;9.90;8.90;;;;;;;16.24;60.63;100495.23;105822;1259;68762;-77
2023/09/18 02:54:30;;;;;;;14.70;9.60;;;;;;;16.23;60.64;100496.23;105747;1259;72720;-75
2023/09/18 02:56:58;;;;;;;12.20;8.90;;;;;;;16.23;60.66;100489.30;105805;1253;60530;-74
2023/09/18 02:59:26;;;;;;;10.70;9.60;;;;;;;16.23;60.61;100493.26;105470;1254;60492;-77
2023/09/18 03:01:54;;;;;;;11.60;9.10;;;;;;;16.21;60.78;100488.45;105579;1256;73849;-76
2023/09/18 03:04:21;;;;;;;12.20;9.10;;;;;;;16.19;60.91;100489.78;105560;1259;68320;-75
2023/09/18 03:06:49;;;;;;;14.40;9.10;;;;;;;16.16;60.87;100489.91;105895;1254;72511;-74
2023/09/18 03:09:18;;;;;;;10.90;9.50;;;;;;;16.15;60.93;100486.48;105820;1254;60873;-75
2023/09/18 03:11:46;;;;;;;11.30;9.30;;;;;;;16.13;60.98;100490.33;105637;1254;60541;-75
2023/09/18 03:14:13;;;;;;;12.50;9.10;;;;;;;16.11;61.16;100487.30;105718;1253;73783;-75
2023/09/18 03:16:41;;;;;;;12.50;9.60;;;;;;;16.10;61.25;100487.57;105783;1257;69986;-77
2023/09/18 03:19:09;;;;;;;10.50;9.40;;;;;;;16.09;61.06;100485.05;105825;1254;70627;-74
2023/09/18 03:21:37;;;;;;;11.00;8.90;;;;;;;16.09;60.88;100485.86;105805;1254;60541;-75
2023/09/18 03:24:05;;;;;;;10.90;9.20;;;;;;;16.09;60.91;100485.08;105268;1259;60355;-75
2023/09/18 03:26:33;;;;;;;13.20;9.80;;;;;;;16.09;60.81;100483.60;105398;1254;73820;-77
2023/09/18 03:29:01;;;;;;;13.50;8.20;;;;;;;16.09;60.96;100485.08;105543;1257;70501;-75
2023/09/18 03:31:29;;;;;;;12.90;9.20;;;;;;;16.08;60.79;100485.34;105762;1255;73047;-75
2023/09/18 03:33:57;;;;;;;12.60;9.50;;;;;;;16.08;60.88;100486.30;105821;1254;60543;-76
2023/09/18 03:36:25;;;;;;;12.60;10.20;;;;;;;16.07;60.87;100490.73;105732;1253;60352;-76
2023/09/18 03:38:53;;;;;;;11.00;9.50;;;;;;;16.05;60.91;100489.80;106052;1254;74788;-76
2023/09/18 03:41:21;;;;;;;12.90;10.20;;;;;;;16.04;60.80;100489.41;105870;1255;69133;-75
2023/09/18 03:43:49;;;;;;;11.20;9.40;;;;;;;16.03;61.11;100489.08;105973;1260;71432;-75
2023/09/18 03:46:16;;;;;;;12.30;9.60;;;;;;;16.01;60.99;100489.83;106592;1253;60545;-74
2023/09/18 03:48:48;;;;;;;10.50;9.40;;;;;;;15.98;61.14;100490.04;106361;1259;60470;-73
2023/09/18 03:51:15;;;;;;;11.80;9.60;;;;;;;15.95;61.18;100494.70;105864;1258;71681;-73
2023/09/18 03:53:44;;;;;;;13.60;9.60;;;;;;;15.91;61.38;100488.96;105583;1259;68869;-76
2023/09/18 03:56:12;;;;;;;11.80;9.40;;;;;;;15.89;61.30;100492.52;105403;1254;72755;-74
2023/09/18 03:58:40;;;;;;;14.90;9.70;;;;;;;15.86;61.27;100497.96;105574;1253;60590;-75
2023/09/18 04:01:07;;;;;;;10.50;9.30;;;;;;;15.86;61.35;100499.48;105995;1254;60347;-76
2023/09/18 04:03:35;;;;;;;11.30;9.30;;;;;;;15.85;61.11;100497.74;105509;1253;72901;-76
2023/09/18 04:06:03;;;;;;;13.20;9.30;;;;;;;15.85;60.93;100496.63;105502;1260;68914;-75
2023/09/18 04:08:30;;;;;;;13.90;9.60;;;;;;;15.86;60.94;100496.77;105448;1254;71838;-76
2023/09/18 04:11:00;;;;;;;11.90;9.20;;;;;;;15.87;60.81;100494.30;105883;1253;60550;-72
2023/09/18 04:13:28;;;;;;;14.30;10.30;;;;;;;15.88;60.99;100495.67;107218;1257;60310;-74
2023/09/18 04:15:57;;;;;;;13.50;9.50;;;;;;;15.88;61.22;100493.52;106515;1253;72578;-74
2023/09/18 04:18:25;;;;;;;13.90;9.70;;;;;;;15.87;61.25;100497.30;107336;1253;70178;-74
2023/09/18 04:20:53;;;;;;;11.20;10.00;;;;;;;15.86;61.11;100497.27;107440;1252;72733;-74
2023/09/18 04:23:25;;;;;;;12.30;10.00;;;;;;;15.86;61.20;100498.13;108303;1253;60556;-75
2023/09/18 04:25:54;;;;;;;15.00;10.00;;;;;;;15.86;61.18;100496.60;105506;1253;60577;-73
2023/09/18 04:28:22;;;;;;;15.20;12.70;;;;;;;15.85;61.36;100498.30;105596;1254;73856;-74
2023/09/18 04:30:50;;;;;;;14.30;10.50;;;;;;;15.83;61.41;100497.25;105891;1259;69192;-75
2023/09/18 04:33:17;;;;;;;11.20;10.00;;;;;;;15.82;61.51;100492.59;105780;1256;70508;-73
2023/09/18 04:35:46;;;;;;;14.70;9.70;;;;;;;15.81;61.32;100498.66;105879;1254;60563;-74
2023/09/18 04:38:19;;;;;;;12.60;10.00;;;;;;;15.81;61.42;100502.24;105870;1257;60462;-75
2023/09/18 04:40:47;;;;;;;12.70;9.80;;;;;;;15.81;61.37;100501.48;105778;1253;72816;-75
2023/09/18 04:43:14;;;;;;;11.70;9.90;;;;;;;15.84;61.06;100502.41;105882;1253;70458;-74
2023/09/18 04:45:42;;;;;;;12.00;9.40;;;;;;;15.87;60.98;100497.36;105810;1255;71792;-75
2023/09/18 04:48:11;;;;;;;11.30;9.40;;;;;;;15.93;60.85;100500.44;105944;1261;61193;-76
2023/09/18 04:50:38;;;;;;;12.00;9.10;;;;;;;15.99;60.59;100498.59;106391;1259;60342;-73
2023/09/18 04:53:07;;;;;;;10.90;9.00;;;;;;;16.07;60.37;100499.27;106802;1253;72382;-74
2023/09/18 04:55:34;;;;;;;16.50;8.90;;;;;;;16.16;60.00;100500.02;106728;1252;68348;-73
2023/09/18 04:58:03;;;;;;;12.10;9.10;;;;;;;16.24;59.78;100500.78;105921;1253;72659;-74
2023/09/18 05:00:33;;;;;;;10.40;9.30;;;;;;;16.31;59.57;100502.19;106003;1258;60423;-72
2023/09/18 05:03:01;;;;;;;13.00;9.20;;;;;;;16.37;59.68;100498.63;105630;1258;60369;-75
2023/09/18 05:05:29;;;;;;;13.70;9.50;;;;;;;16.42;59.48;100502.48;105912;1253;73800;-74
2023/09/18 05:07:57;;;;;;;12.80;9.60;;;;;;;16.47;59.36;100502.52;105802;1252;70502;-73
2023/09/18 05:10:25;;;;;;;12.20;9.20;;;;;;;16.53;59.19;100504.98;105855;1254;72468;-74
2023/09/18 05:12:58;;;;;;;10.10;9.00;;;;;;;16.59;59.14;100499.75;105364;1259;60493;-76
2023/09/18 05:15:29;;;;;;;13.00;9.20;;;;;;;16.65;58.89;100500.23;105853;1253;60470;-75
2023/09/18 05:17:58;;;;;;;11.80;9.80;;;;;;;16.70;58.99;100498.15;105987;1253;73820;-73
2023/09/18 05:20:27;;;;;;;12.30;9.30;;;;;;;16.77;58.77;100499.00;105941;1257;69373;-75
2023/09/18 05:22:56;;;;;;;13.30;9.60;;;;;;;16.84;58.57;100503.45;105859;1254;72537;-73
2023/09/18 05:25:27;;;;;;;13.10;9.30;;;;;;;16.91;58.34;100503.80;105832;1258;60540;-74
2023/09/18 05:27:57;;;;;;;13.50;9.20;;;;;;;16.99;58.12;100503.52;105857;1254;60544;-75
2023/09/18 05:30:43;;;;;;;13.80;9.30;;;;;;;17.06;57.76;100505.70;105824;1253;72732;-75
2023/09/18 05:33:10;;;;;;;12.90;9.00;;;;;;;17.15;57.58;100502.66;105918;1253;69992;-74
2023/09/18 05:35:42;;;;;;;10.90;9.30;;;;;;;17.23;57.50;100503.81;105846;1255;71684;-76
2023/09/18 05:38:13;;;;;;;10.30;8.60;;;;;;;17.31;57.20;100504.25;105972;1258;60485;-73
2023/09/18 05:40:41;;;;;;;14.70;9.70;;;;;;;17.38;56.81;100506.41;105590;1254;60465;-73
2023/09/18 05:43:10;;;;;;;17.00;9.00;;;;;;;17.44;56.35;100505.98;106053;1254;74192;-74
2023/09/18 05:45:38;;;;;;;14.60;8.80;;;;;;;17.51;56.21;100505.23;105799;1254;69830;-74
2023/09/18 05:48:05;;;;;;;17.70;8.50;;;;;;;17.58;56.25;100502.81;105935;1257;70943;-74
2023/09/18 05:50:35;;;;;;;14.50;8.60;;;;;;;17.64;56.02;100508.23;106047;1254;62222;-74
2023/09/18 05:53:06;;;;;;;14.70;8.00;;;;;;;17.69;55.94;100500.36;105998;1259;60415;-73
2023/09/18 05:55:33;;;;;;;17.10;9.80;;;;;;;17.73;55.89;100502.48;106024;1253;72639;-72
2023/09/18 05:58:01;;;;;;;12.40;9.40;;;;;;;17.79;56.00;100499.90;106004;1258;69514;-70
2023/09/18 06:00:31;;;;;;;12.40;9.00;;;;;;;17.87;55.96;100503.05;105753;1253;71408;-76
2023/09/18 06:02:59;;;;;;;16.40;9.70;;;;;;;17.95;55.92;100501.31;106659;1253;60548;-79
2023/09/18 06:05:27;;;;;;;16.90;9.70;;;;;;;18.04;55.72;100502.14;106104;1258;60441;-79
2023/09/18 06:07:54;;;;;;;13.60;8.80;;;;;;;18.12;55.49;100499.80;106307;1253;73481;-78
2023/09/18 06:10:21;;;;;;;11.40;9.50;;;;;;;18.21;55.34;100495.70;107001;1253;68891;-78
2023/09/18 06:12:49;;;;;;;14.50;9.30;;;;;;;18.30;55.17;100497.64;107189;1254;71483;-78
2023/09/18 06:15:16;;;;;;;12.10;8.70;;;;;;;18.41;54.96;100497.31;106630;1254;60643;-78
2023/09/18 06:17:44;;;;;;;13.60;8.60;;;;;;;18.51;54.58;100499.95;106837;1252;60462;-78
2023/09/18 06:20:15;;;;;;;15.90;8.80;;;;;;;18.59;54.34;100499.98;106642;1253;72430;-81
2023/09/18 06:22:43;;;;;;;17.40;8.50;;;;;;;18.67;54.34;100502.15;105964;1253;68774;-78
2023/09/18 06:25:11;;;;;;;11.00;8.00;;;;;;;18.75;54.16;100501.33;105914;1256;73277;-80
2023/09/18 06:27:38;;;;;;;14.70;7.90;;;;;;;18.83;53.89;100495.40;105934;1254;60473;-79
2023/09/18 06:30:06;;;;;;;13.10;8.00;;;;;;;18.90;53.98;100502.20;105891;1251;60652;-79
2023/09/18 06:32:34;;;;;;;14.00;8.30;;;;;;;18.97;53.78;100499.61;106265;1253;75783;-77
2023/09/18 06:35:02;;;;;;;10.30;7.80;;;;;;;19.04;53.85;100503.89;105966;1253;70271;-76
2023/09/18 06:37:29;;;;;;;20.90;15.00;;;;;;;19.13;53.60;100504.40;105993;1254;71734;-79
2023/09/18 06:39:57;;;;;;;12.10;8.40;;;;;;;19.18;53.75;100508.33;106065;1253;60415;-77
2023/09/18 06:42:25;;;;;;;14.40;7.90;;;;;;;19.25;53.63;100507.18;106028;1253;60451;-79
2023/09/18 06:44:59;;;;;;;9.60;8.60;;;;;;;19.34;53.31;100505.31;105842;1253;73023;-78
2023/09/18 06:47:26;;;;;;;12.40;8.80;;;;;;;19.42;53.23;100505.48;106071;1253;70401;-78
2023/09/18 06:49:54;;;;;;;13.80;8.80;;;;;;;19.51;53.21;100503.11;105945;1254;72744;-78
2023/09/18 06:52:21;;;;;;;15.70;8.30;;;;;;;19.58;53.18;100504.05;105934;1253;60413;-78
2023/09/18 06:54:49;;;;;;;10.50;8.40;;;;;;;19.69;53.12;100501.98;105967;1254;60540;-78
2023/09/18 06:57:16;;;;;;;13.90;9.10;;;;;;;19.79;52.93;100499.92;106058;1255;72804;-78
2023/09/18 06:59:44;;;;;;;10.50;8.70;;;;;;;19.85;52.84;100498.79;106466;1253;70119;-77
2023/09/18 07:02:14;;;;;;;12.70;8.10;;;;;;;19.95;53.02;100501.88;106726;1253;71679;-78
2023/09/18 07:04:45;;;;;;;11.40;8.70;;;;;;;20.10;53.08;100499.13;107396;1254;62055;-78
2023/09/18 07:07:14;;;;;;;10.80;9.70;;;;;;;20.26;52.89;100501.00;107053;1257;60309;-78
2023/09/18 07:09:42;;;;;;;11.70;8.80;;;;;;;20.41;52.90;100502.27;106679;1253;73887;-79
2023/09/18 07:12:29;;;;;;;11.80;9.20;;;;;;;20.55;52.67;100501.17;106408;1258;69348;-77
2023/09/18 07:14:58;;;;;;;12.10;8.90;;;;;;;20.67;52.44;100499.34;106424;1258;71604;-78
2023/09/18 07:17:26;;;;;;;13.80;9.50;;;;;;;20.77;52.05;100500.29;106546;1257;60543;-79
2023/09/18 07:19:54;;;;;;;15.60;10.00;;;;;;;20.84;51.71;100500.20;106460;1256;60419;-79
2023/09/18 07:22:21;;;;;;;13.30;8.80;;;;;;;20.91;51.55;100498.77;106236;1253;72607;-80
2023/09/18 07:24:49;;;;;;;11.80;8.80;;;;;;;21.01;51.52;100500.13;106300;1256;71013;-77
2023/09/18 07:27:16;;;;;;;11.20;8.00;;;;;;;21.13;51.44;100497.20;106309;1253;71425;-78
2023/09/18 07:29:44;;;;;;;11.70;9.00;;;;;;;21.22;51.07;100492.20;106332;1256;60367;-79
2023/09/18 07:32:12;;;;;;;11.80;8.60;;;;;;;21.29;50.70;100492.65;106028;1253;60349;-80
2023/09/18 07:34:49;;;;;;;12.40;7.60;;;;;;;21.35;50.17;100491.46;106007;1256;74158;-79
2023/09/18 07:37:20;;;;;;;14.30;8.40;;;;;;;21.39;50.25;100491.72;105898;1253;68912;-79
2023/09/18 07:39:49;;;;;;;11.30;7.70;;;;;;;21.45;50.32;100489.16;106030;1253;72471;-80
2023/09/18 07:42:16;;;;;;;16.70;9.10;;;;;;;21.53;49.74;100493.38;105979;1252;60649;-77
2023/09/18 07:44:45;;;;;;;10.90;7.40;;;;;;;21.59;49.33;100491.79;105935;1253;60424;-80
2023/09/18 07:47:12;;;;;;;9.90;7.90;;;;;;;21.65;49.51;100489.41;105894;1254;73822;-78
2023/09/18 07:49:40;;;;;;;10.50;7.70;;;;;;;21.75;49.47;100490.88;106352;1253;70279;-79
2023/09/18 07:52:07;;;;;;;11.30;8.20;;;;;;;21.87;48.76;100491.80;106118;1254;72619;-78
2023/09/18 07:54:35;;;;;;;11.90;8.00;;;;;;;21.92;48.68;100491.48;109176;1253;59330;-78
2023/09/18 07:57:02;;;;;;;10.00;7.00;;;;;;;21.96;48.55;100491.16;106682;1256;60519;-79
2023/09/18 07:59:30;;;;;;;16.90;9.70;;;;;;;22.02;48.41;100487.56;105996;1253;72633;-79
2023/09/18 08:01:58;;;;;;;14.40;11.50;;;;;;;22.10;48.13;100488.34;106018;1258;73031;-78
2023/09/18 08:04:26;;;;;;;9.80;7.60;;;;;;;22.20;47.78;100485.48;106071;1253;72307;-78
2023/09/18 08:06:53;;;;;;;9.40;7.30;;;;;;;22.31;47.78;100487.77;107126;1256;60540;-78
2023/09/18 08:09:20;;;;;;;8.40;7.20;;;;;;;22.46;47.75;100485.59;107422;1253;60392;-76
2023/09/18 08:11:49;;;;;;;12.00;7.80;;;;;;;22.61;48.19;100483.35;107220;1252;75838;-76
2023/09/18 08:14:17;;;;;;;11.00;7.50;;;;;;;22.79;48.37;100483.27;107380;1253;68685;-77
2023/09/18 08:16:44;;;;;;;11.10;7.70;;;;;;;23.00;47.74;100482.30;106013;1253;72653;-78
2023/09/18 08:19:16;;;;;;;9.30;6.80;;;;;;;23.20;47.45;100479.41;107637;1253;60755;-79
2023/09/18 08:21:44;;;;;;;9.30;6.90;;;;;;;23.40;46.70;100480.12;109180;1252;59498;-80
2023/09/18 08:24:12;;;;;;;11.30;7.60;;;;;;;23.57;46.56;100475.83;108804;1252;73047;-80
2023/09/18 08:26:39;;;;;;;9.00;7.50;;;;;;;23.75;46.58;100473.70;106710;1256;69093;-81
2023/09/18 08:29:07;;;;;;;8.70;7.40;;;;;;;23.94;46.17;100469.06;106130;1259;71698;-79
2023/09/18 08:31:34;;;;;;;7.60;6.80;;;;;;;24.12;45.79;100469.83;106198;1255;60453;-78
2023/09/18 08:34:02;;;;;;;8.00;7.20;;;;;;;24.27;44.83;100473.61;105846;1253;60477;-77
2023/09/18 08:36:30;;;;;;;9.50;7.10;;;;;;;24.35;44.72;100470.02;105896;1260;72762;-78
2023/09/18 08:38:58;;;;;;;10.40;7.70;;;;;;;24.47;44.42;100471.30;106106;1253;70714;-78
2023/09/18 08:41:27;;;;;;;8.60;7.60;;;;;;;24.58;44.47;100470.06;105948;1253;72619;-80
2023/09/18 08:43:59;;;;;;;12.10;7.20;;;;;;;24.70;43.88;100470.38;105886;1256;60442;-79
2023/09/18 08:46:27;;;;;;;7.80;7.00;;;;;;;24.82;43.82;100465.92;105886;1253;60524;-79
2023/09/18 08:49:00;;;;;;;9.80;6.90;;;;;;;24.97;43.81;100461.85;106130;1261;74077;-80
2023/09/18 08:51:28;;;;;;;10.40;6.60;;;;;;;25.17;43.59;100458.31;106091;1254;68727;-79
2023/09/18 08:53:55;;;;;;;10.60;6.70;;;;;;;25.37;43.28;100459.71;106018;1254;72654;-82
2023/09/18 08:56:23;;;;;;;11.80;7.40;;;;;;;25.52;42.69;100459.02;105721;1260;60438;-80
2023/09/18 08:58:53;;;;;;;7.30;6.60;;;;;;;25.63;42.64;100459.50;105903;1254;60439;-80
2023/09/18 09:01:22;;;;;;;9.50;6.90;;;;;;;25.82;42.55;100457.38;106002;1254;72723;-81
2023/09/18 09:03:49;;;;;;;7.80;6.70;;;;;;;26.19;41.97;100453.63;105959;1253;70398;-81
2023/09/18 09:06:17;;;;;;;11.60;8.20;;;;;;;26.70;41.39;100452.81;106256;1253;72412;-81
2023/09/18 09:08:44;;;;;;;10.30;7.00;;;;;;;27.30;40.17;100454.04;105840;1253;364361;-81
2023/09/18 09:13:24;;;;;;;13.40;7.30;;;;;;;28.11;38.23;100440.70;103005;1293;600337;-77
2023/09/18 09:16:07;;;;;;;7.60;6.90;;;;;;;28.75;37.78;100442.28;106588;1267;60194;-79
2023/09/18 09:18:34;;;;;;;8.90;7.00;;;;;;;29.28;36.77;100434.73;106391;1266;59418;-79
2023/09/18 09:21:04;;;;;;;8.20;6.90;;;;;;;29.64;36.22;100437.52;106351;1266;70951;-77
2023/09/18 09:23:48;;;;;;;9.70;7.80;;;;;;;29.99;35.56;100436.41;104948;1269;70807;-78
2023/09/18 09:26:16;;;;;;;8.10;6.90;;;;;;;30.32;34.72;100438.45;105142;1266;213953;-78
2023/09/18 09:28:44;;;;;;;7.40;6.60;;;;;;;30.50;34.11;100432.27;105127;1266;60548;-76
2023/09/18 09:31:14;;;;;;;7.50;6.30;;;;;;;30.65;32.97;100442.36;105167;1267;60105;-77
2023/09/18 09:33:50;;;;;;;8.50;7.60;;;;;;;30.71;32.49;100435.09;105091;1264;71160;-78
2023/09/18 09:36:18;;;;;;;6.60;5.80;;;;;;;30.81;32.77;100431.11;105155;1267;70324;-79
2023/09/18 09:38:45;;;;;;;10.10;6.70;;;;;;;30.95;32.06;100434.21;105087;1267;73034;-77
2023/09/18 09:41:14;;;;;;;7.30;6.50;;;;;;;31.07;32.58;100434.92;104991;1266;59586;-79
2023/09/18 09:43:42;;;;;;;9.20;6.60;;;;;;;31.29;32.24;100436.14;105092;1270;59897;-81
2023/09/18 09:46:21;;;;;;;6.30;5.60;;;;;;;31.48;31.75;100426.70;104754;1266;75465;-79
2023/09/18 09:49:02;;;;;;;8.30;6.50;;;;;;;31.68;31.19;100416.04;105869;1259;70446;-78
2023/09/18 09:51:30;;;;;;;6.50;5.90;;;;;;;32.17;30.66;100418.72;106121;1257;73595;-78
2023/09/18 09:54:00;;;;;;;6.20;5.60;;;;;;;32.35;29.82;100418.64;106684;1257;59717;-77
2023/09/18 09:56:48;;;;;;;7.20;6.60;;;;;;;32.14;29.93;100413.42;106586;1254;59739;-77
2023/09/18 09:59:17;;;;;;;6.60;5.90;;;;;;;31.89;30.31;100409.17;106123;1254;73633;-78
2023/09/18 10:01:50;;;;;;;9.10;7.00;;;;;;;32.11;30.60;100403.67;105944;1254;71021;-78
2023/09/18 10:04:19;;;;;;;7.40;6.50;;;;;;;32.58;30.33;100404.38;105966;1259;72652;-78
2023/09/18 10:06:55;;;;;;;7.00;6.30;;;;;;;32.98;29.92;100398.98;105922;1256;59762;-79
2023/09/18 10:09:23;;;;;;;6.70;6.10;;;;;;;33.27;29.82;100400.58;105942;1254;62433;-79
2023/09/18 10:11:55;;;;;;;6.60;6.00;;;;;;;33.42;28.67;100403.31;106281;1259;73439;-76
2023/09/18 10:14:31;;;;;;;5.80;5.10;;;;;;;33.15;28.99;100398.54;105953;1259;69634;-80
2023/09/18 10:17:17;;;;;;;6.60;5.90;;;;;;;33.15;29.22;100392.55;106040;1256;74920;-78
2023/09/18 10:20:16;;;;;;;7.20;5.60;;;;;;;33.49;29.08;100395.59;106022;1259;60138;-80
2023/09/18 10:22:52;;;;;;;6.10;5.60;;;;;;;33.98;28.55;100392.61;105883;1254;59988;-78
2023/09/18 10:25:23;;;;;;;9.30;5.00;;;;;;;34.20;28.11;100389.66;107500;1259;71861;-79
2023/09/18 10:27:58;;;;;;;5.60;5.10;;;;;;;34.37;27.92;100391.30;107873;1254;70716;-78
2023/09/18 10:30:26;;;;;;;6.20;5.70;;;;;;;34.50;27.85;100389.20;106389;1256;72336;-79
2023/09/18 10:32:54;;;;;;;6.00;5.50;;;;;;;34.63;27.89;100383.35;105746;1254;60104;-79
2023/09/18 10:35:22;;;;;;;6.40;5.70;;;;;;;34.93;27.56;100383.81;105858;1260;59513;-80
2023/09/18 10:37:53;;;;;;;8.20;5.90;;;;;;;35.17;27.58;100382.91;105565;1254;71777;-78
2023/09/18 10:40:21;;;;;;;8.40;5.20;;;;;;;35.26;27.20;100383.80;105642;1254;61338;-78
2023/09/18 10:42:50;;;;;;;6.10;5.60;;;;;;;35.25;27.25;100382.36;105890;1254;62459;-78
2023/09/18 10:45:18;;;;;;;5.80;5.10;;;;;;;35.32;27.26;100386.55;106076;1254;59554;-75
2023/09/18 10:47:46;;;;;;;6.60;5.00;;;;;;;35.46;26.89;100386.55;105853;1259;59836;-77
2023/09/18 10:50:25;;;;;;;8.50;5.30;;;;;;;35.34;26.97;100380.04;105808;1254;64213;-79
2023/09/18 10:52:53;;;;;;;5.90;5.40;;;;;;;35.20;27.00;100375.40;105800;1259;60283;-77
2023/09/18 10:55:21;;;;;;;6.20;5.70;;;;;;;35.19;27.06;100370.00;105598;1260;64829;-77
2023/09/18 10:57:56;;;;;;;5.70;5.30;;;;;;;35.39;27.17;100364.35;105735;1256;59711;-77
2023/09/18 11:00:31;;;;;;;7.00;5.70;;;;;;;35.93;26.49;100362.27;105791;1254;59667;-75
2023/09/18 11:03:14;;;;;;;6.00;5.40;;;;;;;36.14;26.07;100361.37;105885;1260;64447;-77
2023/09/18 11:05:42;;;;;;;5.70;5.20;;;;;;;35.91;26.35;100361.92;105938;1254;72730;-76
2023/09/18 11:08:35;;;;;;;5.30;4.80;;;;;;;35.78;26.31;100363.46;105649;1254;63697;-77
2023/09/18 11:11:09;;;;;;;7.90;5.30;;;;;;;35.64;26.53;100366.21;105794;1258;59927;-77
2023/09/18 11:13:41;;;;;;;6.80;5.10;;;;;;;35.86;26.65;100359.95;105789;1254;59740;-75
2023/09/18 11:16:27;;;;;;;;;;;;;;;36.32;26.17;100352.21;105614;1254;64518;-76
2023/09/18 11:19:03;;;;;;;8.50;5.10;;;;;;;36.55;26.05;100347.28;105638;1259;71446;-78
2023/09/18 11:21:31;;;;;;;6.20;4.90;;;;;;;36.92;26.08;100340.75;105745;1254;63783;-78
2023/09/18 11:24:00;;;;;;;5.10;4.60;;;;;;;37.51;25.31;100345.33;105928;1256;59628;-75